sensor_id;sensor_type;location;lat;lon;timestamp;pressure;altitude;pressure_sealevel;temperature;humidity
4590;BME280;2307;48.448;9.216;2023-04-19T00:02:10;95873.28;;;9.95;100.00
4590;BME280;2307;48.448;9.216;2023-04-19T00:04:37;95874.50;;;9.93;100.00
4590;BME280;2307;48.448;9.216;2023-04-19T00:07:03;95873.91;;;9.91;100.00
4590;BME280;2307;48.448;9.216;2023-04-19T00:09:30;95868.94;;;9.83;100.00
4590;BME280;2307;48.448;9.216;2023-04-19T00:11:58;95860.41;;;9.81;100.00
4590;BME280;2307;48.448;9.216;2023-04-19T00:14:25;95866.94;;;9.78;100.00
4590;BME280;2307;48.448;9.216;2023-04-19T00:16:51;95876.00;;;9.64;100.00
4590;BME280;2307;48.448;9.216;2023-04-19T00:19:17;95871.22;;;9.79;100.00
4590;BME280;2307;48.448;9.216;2023-04-19T00:21:45;95869.72;;;9.83;100.00
4590;BME280;2307;48.448;9.216;2023-04-19T00:24:12;95862.03;;;9.82;100.00
4590;BME280;2307;48.448;9.216;2023-04-19T00:26:38;95863.94;;;9.93;100.00
4590;BME280;2307;48.448;9.216;2023-04-19T00:29:06;95867.63;;;9.92;100.00
4590;BME280;2307;48.448;9.216;2023-04-19T00:31:33;95860.72;;;9.91;100.00
4590;BME280;2307;48.448;9.216;2023-04-19T00:34:00;95860.34;;;9.87;100.00
4590;BME280;2307;48.448;9.216;2023-04-19T00:36:27;95861.91;;;9.95;100.00
4590;BME280;2307;48.448;9.216;2023-04-19T00:38:53;95854.44;;;9.92;100.00
4590;BME280;2307;48.448;9.216;2023-04-19T00:41:19;95854.56;;;9.97;100.00
4590;BME280;2307;48.448;9.216;2023-04-19T00:43:46;95855.59;;;9.96;100.00
4590;BME280;2307;48.448;9.216;2023-04-19T00:46:14;95850.31;;;9.96;100.00
4590;BME280;2307;48.448;9.216;2023-04-19T00:48:40;95849.00;;;9.87;100.00
4590;BME280;2307;48.448;9.216;2023-04-19T00:51:07;95845.47;;;9.75;100.00
4590;BME280;2307;48.448;9.216;2023-04-19T00:53:34;95849.00;;;9.87;100.00
4590;BME280;2307;48.448;9.216;2023-04-19T00:56:01;95849.00;;;9.87;100.00
4590;BME280;2307;48.448;9.216;2023-04-19T00:58:29;95843.66;;;9.75;100.00
4590;BME280;2307;48.448;9.216;2023-04-19T01:00:56;95843.41;;;9.77;100.00
4590;BME280;2307;48.448;9.216;2023-04-19T01:03:25;95844.53;;;9.87;100.00
4590;BME280;2307;48.448;9.216;2023-04-19T01:05:53;95840.78;;;9.77;100.00
4590;BME280;2307;48.448;9.216;2023-04-19T01:08:20;95844.72;;;9.68;100.00
4590;BME280;2307;48.448;9.216;2023-04-19T01:10:46;95839.44;;;9.68;100.00
4590;BME280;2307;48.448;9.216;2023-04-19T01:13:13;95840.63;;;9.53;100.00
4590;BME280;2307;48.448;9.216;2023-04-19T01:15:39;95836.25;;;9.41;100.00
4590;BME280;2307;48.448;9.216;2023-04-19T01:18:05;95834.97;;;9.50;100.00
4590;BME280;2307;48.448;9.216;2023-04-19T01:20:33;95838.72;;;9.60;100.00
4590;BME280;2307;48.448;9.216;2023-04-19T01:23:01;95826.69;;;9.65;100.00
4590;BME280;2307;48.448;9.216;2023-04-19T01:25:27;95831.84;;;9.59;100.00
4590;BME280;2307;48.448;9.216;2023-04-19T01:27:54;95835.03;;;9.61;100.00
4590;BME280;2307;48.448;9.216;2023-04-19T01:30:20;95827.31;;;9.67;100.00
4590;BME280;2307;48.448;9.216;2023-04-19T01:32:47;95827.31;;;9.67;100.00
4590;BME280;2307;48.448;9.216;2023-04-19T01:35:13;95821.69;;;9.38;100.00
4590;BME280;2307;48.448;9.216;2023-04-19T01:37:39;95816.63;;;9.37;100.00
4590;BME280;2307;48.448;9.216;2023-04-19T01:40:08;95824.44;;;9.25;100.00
4590;BME280;2307;48.448;9.216;2023-04-19T01:42:34;95815.88;;;9.30;100.00
4590;BME280;2307;48.448;9.216;2023-04-19T01:45:01;95817.81;;;9.41;100.00
4590;BME280;2307;48.448;9.216;2023-04-19T01:47:27;95809.72;;;9.36;100.00
4590;BME280;2307;48.448;9.216;2023-04-19T01:49:54;95815.19;;;9.41;100.00
4590;BME280;2307;48.448;9.216;2023-04-19T01:52:20;95806.88;;;9.37;100.00
4590;BME280;2307;48.448;9.216;2023-04-19T01:54:46;95812.53;;;9.41;100.00
4590;BME280;2307;48.448;9.216;2023-04-19T01:57:14;95805.50;;;9.35;100.00
4590;BME280;2307;48.448;9.216;2023-04-19T01:59:42;95812.69;;;9.46;100.00
4590;BME280;2307;48.448;9.216;2023-04-19T02:02:09;95799.56;;;9.39;100.00
4590;BME280;2307;48.448;9.216;2023-04-19T02:04:35;95800.81;;;9.37;100.00
4590;BME280;2307;48.448;9.216;2023-04-19T02:07:02;95803.03;;;9.15;100.00
4590;BME280;2307;48.448;9.216;2023-04-19T02:09:28;95799.69;;;9.26;100.00
4590;BME280;2307;48.448;9.216;2023-04-19T02:11:54;95798.16;;;9.37;100.00
4590;BME280;2307;48.448;9.216;2023-04-19T02:14:23;95796.47;;;9.42;100.00
4590;BME280;2307;48.448;9.216;2023-04-19T02:16:49;95796.09;;;9.39;100.00
4590;BME280;2307;48.448;9.216;2023-04-19T02:19:15;95795.28;;;9.20;100.00
4590;BME280;2307;48.448;9.216;2023-04-19T02:21:42;95792.00;;;9.25;100.00
4590;BME280;2307;48.448;9.216;2023-04-19T02:24:08;95794.41;;;9.26;100.00
4590;BME280;2307;48.448;9.216;2023-04-19T02:26:35;95784.91;;;9.25;100.00
4590;BME280;2307;48.448;9.216;2023-04-19T02:29:01;95785.91;;;9.24;100.00
4590;BME280;2307;48.448;9.216;2023-04-19T02:31:29;95786.84;;;9.12;100.00
4590;BME280;2307;48.448;9.216;2023-04-19T02:33:56;95780.44;;;9.01;100.00
4590;BME280;2307;48.448;9.216;2023-04-19T02:36:22;95784.59;;;9.15;100.00
4590;BME280;2307;48.448;9.216;2023-04-19T02:38:48;95777.88;;;9.19;100.00
4590;BME280;2307;48.448;9.216;2023-04-19T02:41:15;95788.91;;;9.10;100.00
4590;BME280;2307;48.448;9.216;2023-04-19T02:43:41;95775.50;;;9.11;100.00
4590;BME280;2307;48.448;9.216;2023-04-19T02:46:08;95778.72;;;9.13;100.00
4590;BME280;2307;48.448;9.216;2023-04-19T02:48:36;95777.56;;;9.27;100.00
4590;BME280;2307;48.448;9.216;2023-04-19T02:51:02;95776.13;;;9.31;100.00
4590;BME280;2307;48.448;9.216;2023-04-19T02:53:29;95770.84;;;9.31;100.00
4590;BME280;2307;48.448;9.216;2023-04-19T02:55:55;95772.53;;;9.26;100.00
4590;BME280;2307;48.448;9.216;2023-04-19T02:58:21;95771.28;;;9.28;100.00
4590;BME280;2307;48.448;9.216;2023-04-19T03:00:48;95777.56;;;9.27;100.00
4590;BME280;2307;48.448;9.216;2023-04-19T03:03:14;95771.06;;;9.30;100.00
4590;BME280;2307;48.448;9.216;2023-04-19T03:05:42;95774.06;;;9.33;100.00
4590;BME280;2307;48.448;9.216;2023-04-19T03:08:08;95768.03;;;9.26;100.00
4590;BME280;2307;48.448;9.216;2023-04-19T03:10:36;95760.75;;;9.28;100.00
4590;BME280;2307;48.448;9.216;2023-04-19T03:13:02;95766.03;;;9.28;100.00
4590;BME280;2307;48.448;9.216;2023-04-19T03:15:28;95768.03;;;9.26;100.00
4590;BME280;2307;48.448;9.216;2023-04-19T03:17:55;95770.47;;;9.28;100.00
4590;BME280;2307;48.448;9.216;2023-04-19T03:20:21;95763.22;;;9.23;100.00
4590;BME280;2307;48.448;9.216;2023-04-19T03:22:49;95761.63;;;9.22;100.00
4590;BME280;2307;48.448;9.216;2023-04-19T03:25:15;95765.19;;;9.10;100.00
4590;BME280;2307;48.448;9.216;2023-04-19T03:27:42;95761.88;;;9.14;100.00
4590;BME280;2307;48.448;9.216;2023-04-19T03:30:12;95768.31;;;9.00;100.00
4590;BME280;2307;48.448;9.216;2023-04-19T03:32:38;95758.50;;;9.07;100.00
4590;BME280;2307;48.448;9.216;2023-04-19T03:35:05;95755.34;;;8.98;100.00
4590;BME280;2307;48.448;9.216;2023-04-19T03:37:32;95754.78;;;9.15;100.00
4590;BME280;2307;48.448;9.216;2023-04-19T03:39:59;95754.22;;;9.13;100.00
4590;BME280;2307;48.448;9.216;2023-04-19T03:42:26;95750.00;;;9.05;100.00
4590;BME280;2307;48.448;9.216;2023-04-19T03:44:52;95751.56;;;9.13;100.00
4590;BME280;2307;48.448;9.216;2023-04-19T03:47:18;95747.53;;;9.10;100.00
4590;BME280;2307;48.448;9.216;2023-04-19T03:49:45;95741.47;;;9.10;100.00
4590;BME280;2307;48.448;9.216;2023-04-19T03:52:11;95748.50;;;9.16;100.00
4590;BME280;2307;48.448;9.216;2023-04-19T03:54:38;95744.19;;;9.21;100.00
4590;BME280;2307;48.448;9.216;2023-04-19T03:57:06;95741.34;;;8.98;100.00
4590;BME280;2307;48.448;9.216;2023-04-19T03:59:33;95740.03;;;9.07;100.00
4590;BME280;2307;48.448;9.216;2023-04-19T04:02:00;95743.88;;;9.11;100.00
4590;BME280;2307;48.448;9.216;2023-04-19T04:04:26;95746.78;;;9.03;100.00
4590;BME280;2307;48.448;9.216;2023-04-19T04:06:52;95742.19;;;9.17;100.00
4590;BME280;2307;48.448;9.216;2023-04-19T04:09:19;95743.00;;;9.17;100.00
4590;BME280;2307;48.448;9.216;2023-04-19T04:11:46;95741.41;;;9.16;100.00
4590;BME280;2307;48.448;9.216;2023-04-19T04:14:13;95742.63;;;9.14;100.00
4590;BME280;2307;48.448;9.216;2023-04-19T04:16:40;95737.72;;;9.17;100.00
4590;BME280;2307;48.448;9.216;2023-04-19T04:19:06;95742.13;;;9.23;100.00
4590;BME280;2307;48.448;9.216;2023-04-19T04:21:33;95743.16;;;9.22;100.00
4590;BME280;2307;48.448;9.216;2023-04-19T04:23:59;95741.34;;;9.23;100.00
4590;BME280;2307;48.448;9.216;2023-04-19T04:26:27;95745.00;;;9.22;100.00
4590;BME280;2307;48.448;9.216;2023-04-19T04:28:57;95749.47;;;9.21;100.00
4590;BME280;2307;48.448;9.216;2023-04-19T04:31:25;95746.84;;;8.96;100.00
4590;BME280;2307;48.448;9.216;2023-04-19T04:33:52;95746.50;;;9.11;100.00
4590;BME280;2307;48.448;9.216;2023-04-19T04:36:19;95750.00;;;9.05;100.00
4590;BME280;2307;48.448;9.216;2023-04-19T04:38:46;95746.06;;;9.14;100.00
4590;BME280;2307;48.448;9.216;2023-04-19T04:41:12;95743.00;;;9.17;100.00
4590;BME280;2307;48.448;9.216;2023-04-19T04:43:39;95754.78;;;9.15;100.00
4590;BME280;2307;48.448;9.216;2023-04-19T04:46:05;95754.41;;;9.11;100.00
4590;BME280;2307;48.448;9.216;2023-04-19T04:48:33;95752.97;;;9.15;100.00
4590;BME280;2307;48.448;9.216;2023-04-19T04:50:59;95748.44;;;9.22;100.00
4590;BME280;2307;48.448;9.216;2023-04-19T04:53:26;95747.91;;;9.14;100.00
4590;BME280;2307;48.448;9.216;2023-04-19T04:55:52;95746.88;;;9.15;100.00
4590;BME280;2307;48.448;9.216;2023-04-19T04:58:19;95752.53;;;9.18;100.00
4590;BME280;2307;48.448;9.216;2023-04-19T05:00:45;95750.72;;;8.94;100.00
4590;BME280;2307;48.448;9.216;2023-04-19T05:03:12;95760.03;;;8.72;100.00
4590;BME280;2307;48.448;9.216;2023-04-19T05:05:40;95753.50;;;8.74;100.00
4590;BME280;2307;48.448;9.216;2023-04-19T05:08:07;95759.16;;;8.78;100.00
4590;BME280;2307;48.448;9.216;2023-04-19T05:10:33;95754.38;;;8.68;100.00
4590;BME280;2307;48.448;9.216;2023-04-19T05:12:59;95751.84;;;8.80;100.00
4590;BME280;2307;48.448;9.216;2023-04-19T05:15:26;95756.25;;;8.86;100.00
4590;BME280;2307;48.448;9.216;2023-04-19T05:17:52;95762.47;;;8.91;100.00
4590;BME280;2307;48.448;9.216;2023-04-19T05:20:19;95763.72;;;8.89;100.00
4590;BME280;2307;48.448;9.216;2023-04-19T05:22:47;95761.38;;;8.81;100.00
4590;BME280;2307;48.448;9.216;2023-04-19T05:25:13;95764.03;;;8.74;100.00
4590;BME280;2307;48.448;9.216;2023-04-19T05:27:40;95760.38;;;8.75;100.00
4590;BME280;2307;48.448;9.216;2023-04-19T05:30:07;95752.59;;;8.87;100.00
4590;BME280;2307;48.448;9.216;2023-04-19T05:32:33;95754.53;;;8.98;100.00
4590;BME280;2307;48.448;9.216;2023-04-19T05:35:00;95770.19;;;8.93;100.00
4590;BME280;2307;48.448;9.216;2023-04-19T05:37:26;95765.16;;;8.85;100.00
4590;BME280;2307;48.448;9.216;2023-04-19T05:39:55;95765.78;;;8.87;100.00
4590;BME280;2307;48.448;9.216;2023-04-19T05:42:22;95755.88;;;8.82;100.00
4590;BME280;2307;48.448;9.216;2023-04-19T05:44:48;95760.84;;;8.97;100.00
4590;BME280;2307;48.448;9.216;2023-04-19T05:47:15;95761.22;;;9.00;100.00
4590;BME280;2307;48.448;9.216;2023-04-19T05:49:41;95769.22;;;8.87;100.00
4590;BME280;2307;48.448;9.216;2023-04-19T05:52:08;95767.97;;;8.90;100.00
4590;BME280;2307;48.448;9.216;2023-04-19T05:54:34;95767.91;;;8.96;100.00
4590;BME280;2307;48.448;9.216;2023-04-19T05:57:02;95763.84;;;9.00;100.00
4590;BME280;2307;48.448;9.216;2023-04-19T05:59:28;95758.88;;;9.11;100.00
4590;BME280;2307;48.448;9.216;2023-04-19T06:01:55;95765.06;;;8.98;100.00
4590;BME280;2307;48.448;9.216;2023-04-19T06:04:21;95774.97;;;9.02;100.00
4590;BME280;2307;48.448;9.216;2023-04-19T06:06:48;95778.84;;;9.00;100.00
4590;BME280;2307;48.448;9.216;2023-04-19T06:09:14;95769.34;;;9.17;100.00
4590;BME280;2307;48.448;9.216;2023-04-19T06:11:42;95774.94;;;9.27;100.00
4590;BME280;2307;48.448;9.216;2023-04-19T06:14:10;95779.47;;;9.20;100.00
4590;BME280;2307;48.448;9.216;2023-04-19T06:16:37;95775.31;;;9.31;100.00
4590;BME280;2307;48.448;9.216;2023-04-19T06:19:04;95775.69;;;9.34;100.00
4590;BME280;2307;48.448;9.216;2023-04-19T06:21:31;95778.03;;;9.42;100.00
4590;BME280;2307;48.448;9.216;2023-04-19T06:23:58;95776.66;;;9.40;100.00
4590;BME280;2307;48.448;9.216;2023-04-19T06:26:24;95784.78;;;9.38;100.00
4590;BME280;2307;48.448;9.216;2023-04-19T06:28:51;95780.22;;;9.45;100.00
4590;BME280;2307;48.448;9.216;2023-04-19T06:31:18;95777.75;;;9.50;100.00
4590;BME280;2307;48.448;9.216;2023-04-19T06:33:45;95784.88;;;9.50;100.00
4590;BME280;2307;48.448;9.216;2023-04-19T06:36:11;95782.44;;;9.48;100.00
4590;BME280;2307;48.448;9.216;2023-04-19T06:38:38;95781.28;;;9.44;100.00
4590;BME280;2307;48.448;9.216;2023-04-19T06:41:05;95783.16;;;9.37;100.00
4590;BME280;2307;48.448;9.216;2023-04-19T06:43:33;95784.09;;;9.25;100.00
4590;BME280;2307;48.448;9.216;2023-04-19T06:45:59;95790.72;;;9.09;100.00
4590;BME280;2307;48.448;9.216;2023-04-19T06:48:27;95784.28;;;9.23;100.00
4590;BME280;2307;48.448;9.216;2023-04-19T06:50:53;95783.28;;;8.99;100.00
4590;BME280;2307;48.448;9.216;2023-04-19T06:53:20;95789.75;;;9.03;100.00
4590;BME280;2307;48.448;9.216;2023-04-19T06:55:46;95780.75;;;9.11;100.00
4590;BME280;2307;48.448;9.216;2023-04-19T06:58:13;95778.13;;;9.11;100.00
4590;BME280;2307;48.448;9.216;2023-04-19T07:00:39;95781.38;;;9.13;100.00
4590;BME280;2307;48.448;9.216;2023-04-19T07:03:05;95781.22;;;9.26;100.00
4590;BME280;2307;48.448;9.216;2023-04-19T07:05:35;95781.09;;;9.21;100.00
4590;BME280;2307;48.448;9.216;2023-04-19T07:08:01;95780.53;;;9.37;100.00
4590;BME280;2307;48.448;9.216;2023-04-19T07:10:27;95777.47;;;9.40;100.00
4590;BME280;2307;48.448;9.216;2023-04-19T07:12:54;95779.84;;;9.24;100.00
4590;BME280;2307;48.448;9.216;2023-04-19T07:15:20;95775.69;;;9.34;100.00
4590;BME280;2307;48.448;9.216;2023-04-19T07:17:47;95774.88;;;9.34;100.00
4590;BME280;2307;48.448;9.216;2023-04-19T07:20:13;95778.78;;;9.49;100.00
4590;BME280;2307;48.448;9.216;2023-04-19T07:22:41;95768.03;;;9.51;100.00
4590;BME280;2307;48.448;9.216;2023-04-19T07:25:08;95770.16;;;9.60;100.00
4590;BME280;2307;48.448;9.216;2023-04-19T07:27:34;95778.63;;;9.44;100.00
4590;BME280;2307;48.448;9.216;2023-04-19T07:30:01;95777.16;;;9.48;100.00
4590;BME280;2307;48.448;9.216;2023-04-19T07:32:27;95785.56;;;9.39;100.00
4590;BME280;2307;48.448;9.216;2023-04-19T07:34:54;95777.31;;;9.35;100.00
4590;BME280;2307;48.448;9.216;2023-04-19T07:37:20;95784.28;;;9.23;100.00
4590;BME280;2307;48.448;9.216;2023-04-19T07:39:48;95772.22;;;9.16;100.00
4590;BME280;2307;48.448;9.216;2023-04-19T07:42:14;95773.66;;;9.12;100.00
4590;BME280;2307;48.448;9.216;2023-04-19T07:44:41;95780.75;;;9.11;100.00
4590;BME280;2307;48.448;9.216;2023-04-19T07:47:07;95781.72;;;9.17;100.00
4590;BME280;2307;48.448;9.216;2023-04-19T07:49:33;95777.22;;;8.99;100.00
4590;BME280;2307;48.448;9.216;2023-04-19T07:52:01;95780.19;;;9.09;100.00
4590;BME280;2307;48.448;9.216;2023-04-19T07:54:28;95776.50;;;9.10;100.00
4590;BME280;2307;48.448;9.216;2023-04-19T07:56:55;95772.66;;;9.13;100.00
4590;BME280;2307;48.448;9.216;2023-04-19T07:59:23;95774.25;;;9.14;100.00
4590;BME280;2307;48.448;9.216;2023-04-19T08:01:49;95765.66;;;9.25;100.00
4590;BME280;2307;48.448;9.216;2023-04-19T08:04:16;95768.75;;;9.40;100.00
4590;BME280;2307;48.448;9.216;2023-04-19T08:06:43;95764.34;;;9.52;100.00
4590;BME280;2307;48.448;9.216;2023-04-19T08:09:10;95756.97;;;9.60;100.00
4590;BME280;2307;48.448;9.216;2023-04-19T08:11:36;95758.56;;;9.43;100.00
4590;BME280;2307;48.448;9.216;2023-04-19T08:14:04;95752.66;;;9.48;100.00
4590;BME280;2307;48.448;9.216;2023-04-19T08:16:31;95751.53;;;9.55;100.00
4590;BME280;2307;48.448;9.216;2023-04-19T08:18:57;95753.16;;;9.75;100.00
4590;BME280;2307;48.448;9.216;2023-04-19T08:21:24;95754.31;;;9.97;100.00
4590;BME280;2307;48.448;9.216;2023-04-19T08:23:50;95754.66;;;10.00;100.00
4590;BME280;2307;48.448;9.216;2023-04-19T08:26:17;95759.78;;;10.32;100.00
4590;BME280;2307;48.448;9.216;2023-04-19T08:28:44;95757.22;;;10.55;100.00
4590;BME280;2307;48.448;9.216;2023-04-19T08:31:11;95754.34;;;10.56;100.00
4590;BME280;2307;48.448;9.216;2023-04-19T08:33:38;95758.03;;;10.55;100.00
4590;BME280;2307;48.448;9.216;2023-04-19T08:36:05;95753.94;;;10.41;100.00
4590;BME280;2307;48.448;9.216;2023-04-19T08:38:31;95753.50;;;10.44;100.00
4590;BME280;2307;48.448;9.216;2023-04-19T08:40:57;95754.25;;;10.63;100.00
4590;BME280;2307;48.448;9.216;2023-04-19T08:43:24;95756.06;;;10.62;100.00
4590;BME280;2307;48.448;9.216;2023-04-19T08:45:52;95758.78;;;10.44;100.00
4590;BME280;2307;48.448;9.216;2023-04-19T08:48:21;95759.22;;;10.41;100.00
4590;BME280;2307;48.448;9.216;2023-04-19T08:50:48;95752.38;;;10.52;100.00
4590;BME280;2307;48.448;9.216;2023-04-19T08:53:15;95758.81;;;10.56;100.00
4590;BME280;2307;48.448;9.216;2023-04-19T08:55:42;95750.09;;;10.55;100.00
4590;BME280;2307;48.448;9.216;2023-04-19T08:58:08;95748.97;;;10.63;100.00
4590;BME280;2307;48.448;9.216;2023-04-19T09:00:36;95759.06;;;10.54;100.00
4590;BME280;2307;48.448;9.216;2023-04-19T09:03:03;95752.69;;;10.85;100.00
4590;BME280;2307;48.448;9.216;2023-04-19T09:05:33;95747.66;;;10.95;100.00
4590;BME280;2307;48.448;9.216;2023-04-19T09:08:12;95745.00;;;11.07;100.00
4590;BME280;2307;48.448;9.216;2023-04-19T09:10:51;95747.44;;;11.20;100.00
4590;BME280;2307;48.448;9.216;2023-04-19T09:13:18;95747.31;;;11.15;100.00
4590;BME280;2307;48.448;9.216;2023-04-19T09:15:44;95739.84;;;11.12;100.00
4590;BME280;2307;48.448;9.216;2023-04-19T09:18:10;95745.84;;;11.19;100.00
4590;BME280;2307;48.448;9.216;2023-04-19T09:20:40;95739.03;;;11.23;100.00
4590;BME280;2307;48.448;9.216;2023-04-19T09:23:07;95729.28;;;11.24;100.00
4590;BME280;2307;48.448;9.216;2023-04-19T09:25:33;95732.03;;;10.94;100.00
4590;BME280;2307;48.448;9.216;2023-04-19T09:28:09;95732.72;;;11.24;100.00
4590;BME280;2307;48.448;9.216;2023-04-19T09:30:37;95718.94;;;11.34;100.00
4590;BME280;2307;48.448;9.216;2023-04-19T09:33:03;95718.72;;;11.35;100.00
4590;BME280;2307;48.448;9.216;2023-04-19T09:35:41;95721.78;;;11.55;100.00
4590;BME280;2307;48.448;9.216;2023-04-19T09:38:07;95724.69;;;11.31;100.00
4590;BME280;2307;48.448;9.216;2023-04-19T09:40:34;95721.22;;;11.30;100.00
4590;BME280;2307;48.448;9.216;2023-04-19T09:43:01;95712.25;;;11.43;100.00
4590;BME280;2307;48.448;9.216;2023-04-19T09:45:28;95715.75;;;11.83;100.00
4590;BME280;2307;48.448;9.216;2023-04-19T09:48:04;95721.34;;;11.70;100.00
4590;BME280;2307;48.448;9.216;2023-04-19T09:50:31;95711.81;;;11.34;100.00
4590;BME280;2307;48.448;9.216;2023-04-19T09:52:59;95706.06;;;11.26;100.00
4590;BME280;2307;48.448;9.216;2023-04-19T09:55:27;95706.50;;;11.11;100.00
4590;BME280;2307;48.448;9.216;2023-04-19T09:57:53;95710.78;;;11.35;100.00
4590;BME280;2307;48.448;9.216;2023-04-19T10:00:20;95706.84;;;11.26;100.00
4590;BME280;2307;48.448;9.216;2023-04-19T10:02:48;95704.03;;;11.67;100.00
4590;BME280;2307;48.448;9.216;2023-04-19T10:05:19;95699.22;;;11.64;100.00
4590;BME280;2307;48.448;9.216;2023-04-19T10:07:46;95689.53;;;11.82;100.00
4590;BME280;2307;48.448;9.216;2023-04-19T10:10:14;95699.81;;;11.66;100.00
4590;BME280;2307;48.448;9.216;2023-04-19T10:12:42;95689.88;;;11.85;100.00
4590;BME280;2307;48.448;9.216;2023-04-19T10:15:12;95695.50;;;11.89;100.00
4590;BME280;2307;48.448;9.216;2023-04-19T10:17:38;95690.88;;;11.96;100.00
4590;BME280;2307;48.448;9.216;2023-04-19T10:20:06;95691.78;;;12.01;100.00
4590;BME280;2307;48.448;9.216;2023-04-19T10:22:34;95693.97;;;12.04;100.00
4590;BME280;2307;48.448;9.216;2023-04-19T10:25:12;95694.44;;;11.90;100.00
4590;BME280;2307;48.448;9.216;2023-04-19T10:27:41;95693.28;;;11.57;100.00
4590;BME280;2307;48.448;9.216;2023-04-19T10:30:15;95691.84;;;11.78;100.00
4590;BME280;2307;48.448;9.216;2023-04-19T10:32:43;95686.72;;;12.00;100.00
4590;BME280;2307;48.448;9.216;2023-04-19T10:35:15;95688.69;;;11.93;100.00
4590;BME280;2307;48.448;9.216;2023-04-19T10:37:45;95685.09;;;11.99;100.00
4590;BME280;2307;48.448;9.216;2023-04-19T10:43:15;95679.59;;;12.45;100.00
4590;BME280;2307;48.448;9.216;2023-04-19T10:45:42;95674.81;;;12.59;100.00
4590;BME280;2307;48.448;9.216;2023-04-19T10:50:56;95672.13;;;12.92;100.00
4590;BME280;2307;48.448;9.216;2023-04-19T10:56:08;95661.69;;;13.02;100.00
4590;BME280;2307;48.448;9.216;2023-04-19T11:01:32;95655.53;;;12.97;100.00
4590;BME280;2307;48.448;9.216;2023-04-19T11:04:01;95657.31;;;12.74;100.00
4590;BME280;2307;48.448;9.216;2023-04-19T11:06:27;95654.88;;;12.56;100.00
4590;BME280;2307;48.448;9.216;2023-04-19T11:08:55;95653.19;;;12.67;100.00
4590;BME280;2307;48.448;9.216;2023-04-19T11:11:21;95647.66;;;12.52;100.00
4590;BME280;2307;48.448;9.216;2023-04-19T11:13:49;95637.91;;;12.41;100.00
4590;BME280;2307;48.448;9.216;2023-04-19T11:16:15;95643.38;;;12.51;100.00
4590;BME280;2307;48.448;9.216;2023-04-19T11:18:44;95642.69;;;12.55;100.00
4590;BME280;2307;48.448;9.216;2023-04-19T11:21:11;95639.28;;;12.60;100.00
4590;BME280;2307;48.448;9.216;2023-04-19T11:23:38;95632.72;;;12.62;100.00
4590;BME280;2307;48.448;9.216;2023-04-19T11:26:05;95628.06;;;12.69;100.00
4590;BME280;2307;48.448;9.216;2023-04-19T11:28:32;95630.53;;;12.93;100.00
4590;BME280;2307;48.448;9.216;2023-04-19T11:30:58;95636.31;;;12.90;100.00
4590;BME280;2307;48.448;9.216;2023-04-19T11:33:25;95625.53;;;12.96;100.00
4590;BME280;2307;48.448;9.216;2023-04-19T11:35:54;95624.66;;;12.91;100.00
4590;BME280;2307;48.448;9.216;2023-04-19T11:38:20;95621.97;;;13.07;100.00
4590;BME280;2307;48.448;9.216;2023-04-19T11:40:46;95619.50;;;13.01;100.00
4590;BME280;2307;48.448;9.216;2023-04-19T11:43:15;95616.63;;;13.19;100.00
4590;BME280;2307;48.448;9.216;2023-04-19T11:45:41;95608.34;;;13.37;100.00
4590;BME280;2307;48.448;9.216;2023-04-19T11:48:12;95609.28;;;13.69;99.67
4590;BME280;2307;48.448;9.216;2023-04-19T11:50:39;95604.47;;;13.66;98.06
4590;BME280;2307;48.448;9.216;2023-04-19T11:53:12;95601.56;;;13.95;97.79
4590;BME280;2307;48.448;9.216;2023-04-19T11:55:41;95602.25;;;14.12;97.60
4590;BME280;2307;48.448;9.216;2023-04-19T11:58:07;95599.19;;;14.25;95.41
4590;BME280;2307;48.448;9.216;2023-04-19T12:00:34;95592.25;;;14.19;89.37
4590;BME280;2307;48.448;9.216;2023-04-19T12:03:01;95584.53;;;14.49;86.96
4590;BME280;2307;48.448;9.216;2023-04-19T12:05:28;95590.97;;;13.95;92.88
4590;BME280;2307;48.448;9.216;2023-04-19T12:08:02;95587.88;;;13.81;96.84
4590;BME280;2307;48.448;9.216;2023-04-19T12:10:30;95584.13;;;13.77;98.75
4590;BME280;2307;48.448;9.216;2023-04-19T12:12:56;95583.03;;;13.51;98.93
4590;BME280;2307;48.448;9.216;2023-04-19T12:15:23;95588.63;;;13.28;99.65
4590;BME280;2307;48.448;9.216;2023-04-19T12:18:05;95580.88;;;13.26;100.00
4590;BME280;2307;48.448;9.216;2023-04-19T12:20:32;95580.31;;;13.03;100.00
4590;BME280;2307;48.448;9.216;2023-04-19T12:22:59;95578.00;;;13.28;100.00
4590;BME280;2307;48.448;9.216;2023-04-19T12:25:30;95578.00;;;13.28;100.00
4590;BME280;2307;48.448;9.216;2023-04-19T12:27:57;95572.41;;;13.51;100.00
4590;BME280;2307;48.448;9.216;2023-04-19T12:30:24;95574.22;;;13.46;100.00
4590;BME280;2307;48.448;9.216;2023-04-19T12:32:50;95576.72;;;13.57;95.39
4590;BME280;2307;48.448;9.216;2023-04-19T12:35:19;95567.53;;;13.38;100.00
4590;BME280;2307;48.448;9.216;2023-04-19T12:37:57;95572.03;;;13.38;100.00
4590;BME280;2307;48.448;9.216;2023-04-19T12:40:35;95573.06;;;13.15;100.00
4590;BME280;2307;48.448;9.216;2023-04-19T12:45:32;95565.97;;;13.04;100.00
4590;BME280;2307;48.448;9.216;2023-04-19T12:47:59;95566.53;;;12.84;100.00
4590;BME280;2307;48.448;9.216;2023-04-19T12:50:26;95560.56;;;12.94;100.00
4590;BME280;2307;48.448;9.216;2023-04-19T12:52:53;95560.28;;;12.73;100.00
4590;BME280;2307;48.448;9.216;2023-04-19T12:55:19;95552.13;;;12.58;100.00
4590;BME280;2307;48.448;9.216;2023-04-19T12:57:47;95560.13;;;12.47;100.00
4590;BME280;2307;48.448;9.216;2023-04-19T13:00:14;95552.22;;;12.30;100.00
4590;BME280;2307;48.448;9.216;2023-04-19T13:02:41;95552.59;;;12.22;100.00
4590;BME280;2307;48.448;9.216;2023-04-19T13:05:07;95555.34;;;12.27;100.00
4590;BME280;2307;48.448;9.216;2023-04-19T13:07:34;95555.00;;;12.07;100.00
4590;BME280;2307;48.448;9.216;2023-04-19T13:10:00;95556.63;;;12.08;100.00
4590;BME280;2307;48.448;9.216;2023-04-19T13:12:27;95557.56;;;12.02;100.00
4590;BME280;2307;48.448;9.216;2023-04-19T13:14:55;95553.78;;;11.81;100.00
4590;BME280;2307;48.448;9.216;2023-04-19T13:17:22;95564.63;;;11.68;100.00
4590;BME280;2307;48.448;9.216;2023-04-19T13:19:48;95561.56;;;11.59;100.00
4590;BME280;2307;48.448;9.216;2023-04-19T13:22:15;95551.81;;;11.48;100.00
4590;BME280;2307;48.448;9.216;2023-04-19T13:24:41;95551.94;;;11.53;100.00
4590;BME280;2307;48.448;9.216;2023-04-19T13:27:07;95552.47;;;11.55;100.00
4590;BME280;2307;48.448;9.216;2023-04-19T13:29:34;95549.41;;;11.18;100.00
4590;BME280;2307;48.448;9.216;2023-04-19T13:32:02;95548.88;;;11.33;100.00